sensor_id;sensor_type;location;lat;lon;timestamp;P1;durP1;ratioP1;P2;durP2;ratioP2
56599;SDS011;51832;48.152;11.530;2023-07-29T00:03:29;3.37;;;2.27;;
56599;SDS011;51832;48.152;11.530;2023-07-29T00:08:32;3.58;;;2.50;;
56599;SDS011;51832;48.152;11.530;2023-07-29T00:13:33;3.70;;;2.63;;
56599;SDS011;51832;48.152;11.530;2023-07-29T00:18:33;4.10;;;2.57;;
56599;SDS011;51832;48.152;11.530;2023-07-29T00:23:34;3.50;;;2.22;;
56599;SDS011;51832;48.152;11.530;2023-07-29T00:28:34;3.57;;;2.50;;
56599;SDS011;51832;48.152;11.530;2023-07-29T00:33:34;4.97;;;2.60;;
56599;SDS011;51832;48.152;11.530;2023-07-29T00:38:35;2.63;;;2.20;;
56599;SDS011;51832;48.152;11.530;2023-07-29T00:43:35;3.17;;;1.90;;
56599;SDS011;51832;48.152;11.530;2023-07-29T00:48:35;2.47;;;1.77;;
56599;SDS011;51832;48.152;11.530;2023-07-29T00:53:37;3.75;;;2.55;;
56599;SDS011;51832;48.152;11.530;2023-07-29T00:58:37;2.93;;;2.27;;
56599;SDS011;51832;48.152;11.530;2023-07-29T01:03:38;4.82;;;2.20;;
56599;SDS011;51832;48.152;11.530;2023-07-29T01:08:42;2.80;;;2.00;;
56599;SDS011;51832;48.152;11.530;2023-07-29T01:13:58;2.67;;;1.92;;
56599;SDS011;51832;48.152;11.530;2023-07-29T01:24:49;3.67;;;2.38;;
56599;SDS011;51832;48.152;11.530;2023-07-29T01:29:49;3.28;;;2.20;;
56599;SDS011;51832;48.152;11.530;2023-07-29T01:34:55;2.38;;;2.17;;
56599;SDS011;51832;48.152;11.530;2023-07-29T01:40:03;5.10;;;2.67;;
56599;SDS011;51832;48.152;11.530;2023-07-29T01:45:05;4.57;;;2.55;;
56599;SDS011;51832;48.152;11.530;2023-07-29T01:50:06;2.88;;;2.10;;
56599;SDS011;51832;48.152;11.530;2023-07-29T01:55:07;4.32;;;2.38;;
56599;SDS011;51832;48.152;11.530;2023-07-29T02:00:08;3.55;;;2.40;;
56599;SDS011;51832;48.152;11.530;2023-07-29T02:05:09;2.88;;;1.92;;
56599;SDS011;51832;48.152;11.530;2023-07-29T02:10:09;3.93;;;2.27;;
56599;SDS011;51832;48.152;11.530;2023-07-29T02:15:10;2.55;;;2.10;;
56599;SDS011;51832;48.152;11.530;2023-07-29T02:20:10;3.78;;;2.10;;
56599;SDS011;51832;48.152;11.530;2023-07-29T02:25:11;3.47;;;2.22;;
56599;SDS011;51832;48.152;11.530;2023-07-29T02:30:11;3.42;;;2.40;;
56599;SDS011;51832;48.152;11.530;2023-07-29T02:35:12;3.55;;;2.30;;
56599;SDS011;51832;48.152;11.530;2023-07-29T02:40:12;3.40;;;2.40;;
56599;SDS011;51832;48.152;11.530;2023-07-29T02:45:13;2.42;;;1.98;;
56599;SDS011;51832;48.152;11.530;2023-07-29T02:50:13;2.90;;;2.10;;
56599;SDS011;51832;48.152;11.530;2023-07-29T02:55:14;3.13;;;2.38;;
56599;SDS011;51832;48.152;11.530;2023-07-29T03:00:14;3.97;;;2.03;;
56599;SDS011;51832;48.152;11.530;2023-07-29T03:05:15;3.97;;;2.40;;
56599;SDS011;51832;48.152;11.530;2023-07-29T03:10:15;3.38;;;2.08;;
56599;SDS011;51832;48.152;11.530;2023-07-29T03:15:16;2.93;;;2.13;;
56599;SDS011;51832;48.152;11.530;2023-07-29T03:20:16;2.88;;;2.08;;
56599;SDS011;51832;48.152;11.530;2023-07-29T03:25:17;3.55;;;2.13;;
56599;SDS011;51832;48.152;11.530;2023-07-29T03:30:21;2.67;;;2.10;;
56599;SDS011;51832;48.152;11.530;2023-07-29T03:35:22;3.08;;;2.50;;
56599;SDS011;51832;48.152;11.530;2023-07-29T03:40:22;3.35;;;2.20;;
56599;SDS011;51832;48.152;11.530;2023-07-29T03:45:22;2.90;;;2.10;;
56599;SDS011;51832;48.152;11.530;2023-07-29T03:50:23;2.93;;;2.03;;
56599;SDS011;51832;48.152;11.530;2023-07-29T03:55:24;3.92;;;1.92;;
56599;SDS011;51832;48.152;11.530;2023-07-29T04:00:24;2.07;;;1.70;;
56599;SDS011;51832;48.152;11.530;2023-07-29T04:05:25;3.30;;;1.80;;
56599;SDS011;51832;48.152;11.530;2023-07-29T04:10:26;2.17;;;1.98;;
56599;SDS011;51832;48.152;11.530;2023-07-29T04:15:26;3.50;;;2.00;;
56599;SDS011;51832;48.152;11.530;2023-07-29T04:20:27;2.57;;;1.83;;
56599;SDS011;51832;48.152;11.530;2023-07-29T04:25:27;3.72;;;2.03;;
56599;SDS011;51832;48.152;11.530;2023-07-29T04:30:28;2.60;;;2.00;;
56599;SDS011;51832;48.152;11.530;2023-07-29T04:35:28;3.15;;;1.90;;
56599;SDS011;51832;48.152;11.530;2023-07-29T04:40:29;3.63;;;2.00;;
56599;SDS011;51832;48.152;11.530;2023-07-29T04:45:32;2.80;;;2.17;;
56599;SDS011;51832;48.152;11.530;2023-07-29T04:50:32;2.17;;;1.83;;
56599;SDS011;51832;48.152;11.530;2023-07-29T04:55:33;2.07;;;1.87;;
56599;SDS011;51832;48.152;11.530;2023-07-29T05:00:33;2.22;;;2.00;;
56599;SDS011;51832;48.152;11.530;2023-07-29T05:05:34;2.27;;;1.60;;
56599;SDS011;51832;48.152;11.530;2023-07-29T05:10:34;2.07;;;1.30;;
56599;SDS011;51832;48.152;11.530;2023-07-29T05:15:34;2.40;;;1.70;;
56599;SDS011;51832;48.152;11.530;2023-07-29T05:20:35;2.43;;;1.60;;
56599;SDS011;51832;48.152;11.530;2023-07-29T05:25:35;2.60;;;1.58;;
56599;SDS011;51832;48.152;11.530;2023-07-29T05:30:36;2.50;;;1.60;;
56599;SDS011;51832;48.152;11.530;2023-07-29T05:35:37;1.90;;;1.63;;
56599;SDS011;51832;48.152;11.530;2023-07-29T05:40:37;3.03;;;1.58;;
56599;SDS011;51832;48.152;11.530;2023-07-29T05:45:38;2.00;;;1.60;;
56599;SDS011;51832;48.152;11.530;2023-07-29T05:50:38;3.67;;;1.92;;
56599;SDS011;51832;48.152;11.530;2023-07-29T05:55:39;1.63;;;1.50;;
56599;SDS011;51832;48.152;11.530;2023-07-29T06:00:39;2.13;;;1.70;;
56599;SDS011;51832;48.152;11.530;2023-07-29T06:05:40;2.67;;;1.40;;
56599;SDS011;51832;48.152;11.530;2023-07-29T06:10:40;3.45;;;1.67;;
56599;SDS011;51832;48.152;11.530;2023-07-29T06:15:40;2.33;;;1.63;;
56599;SDS011;51832;48.152;11.530;2023-07-29T06:20:41;2.53;;;1.50;;
56599;SDS011;51832;48.152;11.530;2023-07-29T06:25:41;3.05;;;1.50;;
56599;SDS011;51832;48.152;11.530;2023-07-29T06:30:42;2.05;;;1.60;;
56599;SDS011;51832;48.152;11.530;2023-07-29T06:35:42;2.58;;;1.85;;
56599;SDS011;51832;48.152;11.530;2023-07-29T06:40:42;2.57;;;1.40;;
56599;SDS011;51832;48.152;11.530;2023-07-29T06:45:43;2.40;;;1.65;;
56599;SDS011;51832;48.152;11.530;2023-07-29T06:50:44;3.47;;;1.52;;
56599;SDS011;51832;48.152;11.530;2023-07-29T06:55:44;3.47;;;1.88;;
56599;SDS011;51832;48.152;11.530;2023-07-29T07:00:45;3.47;;;2.00;;
56599;SDS011;51832;48.152;11.530;2023-07-29T07:05:45;3.85;;;2.15;;
56599;SDS011;51832;48.152;11.530;2023-07-29T07:10:46;3.03;;;1.77;;
56599;SDS011;51832;48.152;11.530;2023-07-29T07:15:47;2.53;;;2.10;;
56599;SDS011;51832;48.152;11.530;2023-07-29T07:20:48;3.78;;;2.20;;
56599;SDS011;51832;48.152;11.530;2023-07-29T07:25:50;3.97;;;2.05;;
56599;SDS011;51832;48.152;11.530;2023-07-29T07:30:50;4.03;;;2.30;;
56599;SDS011;51832;48.152;11.530;2023-07-29T07:35:51;3.35;;;2.25;;
56599;SDS011;51832;48.152;11.530;2023-07-29T07:40:55;4.82;;;2.42;;
56599;SDS011;51832;48.152;11.530;2023-07-29T07:46:00;3.38;;;2.05;;
56599;SDS011;51832;48.152;11.530;2023-07-29T07:51:09;3.45;;;2.38;;
56599;SDS011;51832;48.152;11.530;2023-07-29T07:56:13;3.65;;;2.50;;
56599;SDS011;51832;48.152;11.530;2023-07-29T08:01:13;3.15;;;2.38;;
56599;SDS011;51832;48.152;11.530;2023-07-29T08:06:14;3.37;;;2.40;;
56599;SDS011;51832;48.152;11.530;2023-07-29T08:11:14;3.57;;;2.50;;
56599;SDS011;51832;48.152;11.530;2023-07-29T08:16:15;3.47;;;2.30;;
56599;SDS011;51832;48.152;11.530;2023-07-29T08:21:15;4.10;;;2.50;;
56599;SDS011;51832;48.152;11.530;2023-07-29T08:26:16;3.60;;;2.40;;
56599;SDS011;51832;48.152;11.530;2023-07-29T08:31:16;3.35;;;2.42;;
56599;SDS011;51832;48.152;11.530;2023-07-29T08:36:17;3.53;;;2.58;;
56599;SDS011;51832;48.152;11.530;2023-07-29T08:42:00;3.35;;;2.40;;
56599;SDS011;51832;48.152;11.530;2023-07-29T08:46:47;3.45;;;2.55;;
56599;SDS011;51832;48.152;11.530;2023-07-29T08:51:47;2.63;;;2.28;;
56599;SDS011;51832;48.152;11.530;2023-07-29T08:56:48;2.85;;;2.38;;
56599;SDS011;51832;48.152;11.530;2023-07-29T09:01:50;3.65;;;2.70;;
56599;SDS011;51832;48.152;11.530;2023-07-29T09:06:55;4.68;;;2.33;;
56599;SDS011;51832;48.152;11.530;2023-07-29T09:11:56;3.40;;;2.67;;
56599;SDS011;51832;48.152;11.530;2023-07-29T09:16:57;3.92;;;2.40;;
56599;SDS011;51832;48.152;11.530;2023-07-29T09:21:59;3.33;;;2.80;;
56599;SDS011;51832;48.152;11.530;2023-07-29T09:27:00;3.80;;;2.75;;
56599;SDS011;51832;48.152;11.530;2023-07-29T09:32:22;3.97;;;2.80;;
56599;SDS011;51832;48.152;11.530;2023-07-29T09:37:24;5.43;;;3.83;;
56599;SDS011;51832;48.152;11.530;2023-07-29T09:42:24;3.80;;;2.70;;
56599;SDS011;51832;48.152;11.530;2023-07-29T09:47:26;4.57;;;2.70;;
56599;SDS011;51832;48.152;11.530;2023-07-29T09:52:26;4.05;;;2.92;;
56599;SDS011;51832;48.152;11.530;2023-07-29T09:57:27;3.90;;;2.70;;
56599;SDS011;51832;48.152;11.530;2023-07-29T10:02:27;3.30;;;2.70;;
56599;SDS011;51832;48.152;11.530;2023-07-29T10:07:29;3.43;;;2.80;;
56599;SDS011;51832;48.152;11.530;2023-07-29T10:12:30;3.95;;;3.28;;
56599;SDS011;51832;48.152;11.530;2023-07-29T10:17:34;3.70;;;2.83;;
56599;SDS011;51832;48.152;11.530;2023-07-29T10:22:40;3.40;;;3.08;;
56599;SDS011;51832;48.152;11.530;2023-07-29T10:27:43;2.85;;;2.42;;
56599;SDS011;51832;48.152;11.530;2023-07-29T10:32:56;3.95;;;2.72;;
56599;SDS011;51832;48.152;11.530;2023-07-29T10:37:59;4.80;;;2.90;;
56599;SDS011;51832;48.152;11.530;2023-07-29T10:43:02;5.15;;;3.28;;
56599;SDS011;51832;48.152;11.530;2023-07-29T10:48:12;3.70;;;2.60;;
56599;SDS011;51832;48.152;11.530;2023-07-29T10:53:13;3.72;;;3.38;;
56599;SDS011;51832;48.152;11.530;2023-07-29T10:58:16;5.38;;;3.75;;
56599;SDS011;51832;48.152;11.530;2023-07-29T11:03:17;5.32;;;3.00;;
56599;SDS011;51832;48.152;11.530;2023-07-29T11:08:18;4.90;;;2.97;;
56599;SDS011;51832;48.152;11.530;2023-07-29T11:13:21;3.92;;;2.97;;
56599;SDS011;51832;48.152;11.530;2023-07-29T11:18:22;3.17;;;2.00;;
56599;SDS011;51832;48.152;11.530;2023-07-29T11:23:30;1.60;;;1.50;;
56599;SDS011;51832;48.152;11.530;2023-07-29T11:28:37;2.22;;;1.58;;
56599;SDS011;51832;48.152;11.530;2023-07-29T11:33:39;1.80;;;1.33;;
56599;SDS011;51832;48.152;11.530;2023-07-29T11:38:39;2.50;;;1.63;;
56599;SDS011;51832;48.152;11.530;2023-07-29T11:43:40;2.30;;;2.10;;
56599;SDS011;51832;48.152;11.530;2023-07-29T11:48:40;2.08;;;1.88;;
56599;SDS011;51832;48.152;11.530;2023-07-29T11:53:45;4.22;;;2.10;;
56599;SDS011;51832;48.152;11.530;2023-07-29T11:58:45;2.33;;;2.10;;
56599;SDS011;51832;48.152;11.530;2023-07-29T12:03:46;2.72;;;2.08;;
56599;SDS011;51832;48.152;11.530;2023-07-29T12:08:46;2.55;;;2.10;;
56599;SDS011;51832;48.152;11.530;2023-07-29T12:13:47;3.55;;;2.15;;
56599;SDS011;51832;48.152;11.530;2023-07-29T12:18:49;2.78;;;2.30;;
56599;SDS011;51832;48.152;11.530;2023-07-29T12:23:50;3.67;;;2.35;;
56599;SDS011;51832;48.152;11.530;2023-07-29T12:28:51;3.95;;;2.85;;
56599;SDS011;51832;48.152;11.530;2023-07-29T12:33:55;3.20;;;2.50;;
56599;SDS011;51832;48.152;11.530;2023-07-29T12:38:58;5.13;;;3.97;;
56599;SDS011;51832;48.152;11.530;2023-07-29T12:43:59;3.03;;;2.70;;
56599;SDS011;51832;48.152;11.530;2023-07-29T12:49:00;3.40;;;2.80;;
56599;SDS011;51832;48.152;11.530;2023-07-29T12:54:00;3.63;;;2.53;;
56599;SDS011;51832;48.152;11.530;2023-07-29T12:59:01;3.38;;;2.20;;
56599;SDS011;51832;48.152;11.530;2023-07-29T13:04:03;2.30;;;2.00;;
56599;SDS011;51832;48.152;11.530;2023-07-29T13:09:03;5.33;;;2.57;;
56599;SDS011;51832;48.152;11.530;2023-07-29T13:14:05;4.40;;;2.88;;
56599;SDS011;51832;48.152;11.530;2023-07-29T13:19:05;4.55;;;3.38;;
56599;SDS011;51832;48.152;11.530;2023-07-29T13:24:06;4.35;;;3.30;;
56599;SDS011;51832;48.152;11.530;2023-07-29T13:29:06;3.88;;;3.58;;
56599;SDS011;51832;48.152;11.530;2023-07-29T13:34:07;4.87;;;3.40;;
56599;SDS011;51832;48.152;11.530;2023-07-29T13:39:07;4.73;;;3.30;;
56599;SDS011;51832;48.152;11.530;2023-07-29T13:44:10;5.00;;;3.17;;
56599;SDS011;51832;48.152;11.530;2023-07-29T13:49:10;4.17;;;3.30;;
56599;SDS011;51832;48.152;11.530;2023-07-29T13:54:11;3.38;;;2.63;;
56599;SDS011;51832;48.152;11.530;2023-07-29T13:59:11;3.47;;;3.13;;
56599;SDS011;51832;48.152;11.530;2023-07-29T14:04:12;3.97;;;3.10;;
56599;SDS011;51832;48.152;11.530;2023-07-29T14:09:12;3.97;;;3.10;;
56599;SDS011;51832;48.152;11.530;2023-07-29T14:14:12;4.73;;;3.10;;
56599;SDS011;51832;48.152;11.530;2023-07-29T14:19:13;4.80;;;3.10;;
56599;SDS011;51832;48.152;11.530;2023-07-29T14:24:13;3.00;;;2.70;;
56599;SDS011;51832;48.152;11.530;2023-07-29T14:29:15;4.72;;;3.22;;
56599;SDS011;51832;48.152;11.530;2023-07-29T14:34:15;4.27;;;2.70;;
56599;SDS011;51832;48.152;11.530;2023-07-29T14:39:15;4.57;;;3.43;;
56599;SDS011;51832;48.152;11.530;2023-07-29T14:44:16;5.23;;;3.27;;
56599;SDS011;51832;48.152;11.530;2023-07-29T14:49:16;5.27;;;3.20;;
56599;SDS011;51832;48.152;11.530;2023-07-29T14:54:17;5.50;;;3.15;;
56599;SDS011;51832;48.152;11.530;2023-07-29T14:59:17;6.17;;;3.20;;
56599;SDS011;51832;48.152;11.530;2023-07-29T15:04:17;4.03;;;2.90;;
56599;SDS011;51832;48.152;11.530;2023-07-29T15:09:18;2.45;;;2.20;;
56599;SDS011;51832;48.152;11.530;2023-07-29T15:14:18;3.90;;;2.57;;
56599;SDS011;51832;48.152;11.530;2023-07-29T15:19:18;4.20;;;2.93;;
56599;SDS011;51832;48.152;11.530;2023-07-29T15:24:19;3.22;;;2.50;;
56599;SDS011;51832;48.152;11.530;2023-07-29T15:29:20;3.47;;;3.00;;
56599;SDS011;51832;48.152;11.530;2023-07-29T15:34:20;2.73;;;2.37;;
56599;SDS011;51832;48.152;11.530;2023-07-29T15:44:24;3.13;;;2.27;;
56599;SDS011;51832;48.152;11.530;2023-07-29T15:49:24;3.60;;;3.00;;
56599;SDS011;51832;48.152;11.530;2023-07-29T15:54:25;3.30;;;2.35;;
56599;SDS011;51832;48.152;11.530;2023-07-29T15:59:25;7.07;;;4.87;;
56599;SDS011;51832;48.152;11.530;2023-07-29T16:04:26;4.93;;;3.05;;
56599;SDS011;51832;48.152;11.530;2023-07-29T16:09:26;4.10;;;3.10;;
56599;SDS011;51832;48.152;11.530;2023-07-29T16:14:28;4.70;;;3.00;;
56599;SDS011;51832;48.152;11.530;2023-07-29T16:19:28;3.53;;;2.47;;
56599;SDS011;51832;48.152;11.530;2023-07-29T16:24:29;3.50;;;2.63;;
56599;SDS011;51832;48.152;11.530;2023-07-29T16:29:30;3.37;;;2.50;;
56599;SDS011;51832;48.152;11.530;2023-07-29T16:34:30;3.50;;;2.87;;
56599;SDS011;51832;48.152;11.530;2023-07-29T16:39:30;5.03;;;3.30;;
56599;SDS011;51832;48.152;11.530;2023-07-29T16:44:31;4.80;;;3.50;;
56599;SDS011;51832;48.152;11.530;2023-07-29T16:49:32;4.88;;;3.33;;
56599;SDS011;51832;48.152;11.530;2023-07-29T16:54:32;4.57;;;3.47;;
56599;SDS011;51832;48.152;11.530;2023-07-29T16:59:32;4.10;;;3.27;;
56599;SDS011;51832;48.152;11.530;2023-07-29T17:04:33;3.70;;;2.70;;
56599;SDS011;51832;48.152;11.530;2023-07-29T17:09:33;3.00;;;2.50;;
56599;SDS011;51832;48.152;11.530;2023-07-29T17:14:34;3.05;;;2.20;;
56599;SDS011;51832;48.152;11.530;2023-07-29T17:19:34;3.67;;;2.30;;
56599;SDS011;51832;48.152;11.530;2023-07-29T17:24:35;2.25;;;2.00;;
56599;SDS011;51832;48.152;11.530;2023-07-29T17:29:35;3.20;;;2.20;;
56599;SDS011;51832;48.152;11.530;2023-07-29T17:34:36;2.60;;;2.10;;
56599;SDS011;51832;48.152;11.530;2023-07-29T17:39:36;2.73;;;2.30;;
56599;SDS011;51832;48.152;11.530;2023-07-29T17:44:41;5.85;;;2.30;;
56599;SDS011;51832;48.152;11.530;2023-07-29T17:49:41;2.78;;;2.28;;
56599;SDS011;51832;48.152;11.530;2023-07-29T17:54:41;2.63;;;2.27;;
56599;SDS011;51832;48.152;11.530;2023-07-29T17:59:42;3.67;;;2.40;;
56599;SDS011;51832;48.152;11.530;2023-07-29T18:04:42;4.03;;;2.55;;
56599;SDS011;51832;48.152;11.530;2023-07-29T18:09:43;4.65;;;2.20;;
56599;SDS011;51832;48.152;11.530;2023-07-29T18:14:44;3.20;;;2.17;;
56599;SDS011;51832;48.152;11.530;2023-07-29T18:19:45;4.75;;;2.40;;
56599;SDS011;51832;48.152;11.530;2023-07-29T18:24:45;3.15;;;2.20;;
56599;SDS011;51832;48.152;11.530;2023-07-29T18:29:46;2.70;;;2.50;;
56599;SDS011;51832;48.152;11.530;2023-07-29T18:34:46;2.67;;;2.17;;
56599;SDS011;51832;48.152;11.530;2023-07-29T18:39:47;2.50;;;2.30;;
56599;SDS011;51832;48.152;11.530;2023-07-29T18:44:47;3.55;;;2.30;;
56599;SDS011;51832;48.152;11.530;2023-07-29T18:49:48;2.43;;;1.87;;
56599;SDS011;51832;48.152;11.530;2023-07-29T18:54:48;2.42;;;2.22;;
56599;SDS011;51832;48.152;11.530;2023-07-29T18:59:51;2.40;;;2.00;;
56599;SDS011;51832;48.152;11.530;2023-07-29T19:04:51;2.75;;;2.20;;
56599;SDS011;51832;48.152;11.530;2023-07-29T19:09:52;3.20;;;2.42;;
56599;SDS011;51832;48.152;11.530;2023-07-29T19:14:57;2.78;;;2.40;;
56599;SDS011;51832;48.152;11.530;2023-07-29T19:19:57;3.15;;;2.10;;
56599;SDS011;51832;48.152;11.530;2023-07-29T19:24:58;2.30;;;2.10;;
56599;SDS011;51832;48.152;11.530;2023-07-29T19:29:59;2.72;;;1.98;;
56599;SDS011;51832;48.152;11.530;2023-07-29T19:34:59;2.73;;;1.77;;
56599;SDS011;51832;48.152;11.530;2023-07-29T19:40:00;2.35;;;2.10;;
56599;SDS011;51832;48.152;11.530;2023-07-29T19:45:00;2.60;;;1.77;;
56599;SDS011;51832;48.152;11.530;2023-07-29T19:50:00;2.28;;;2.08;;
56599;SDS011;51832;48.152;11.530;2023-07-29T19:55:01;2.77;;;2.03;;
56599;SDS011;51832;48.152;11.530;2023-07-29T20:00:01;2.67;;;2.03;;
56599;SDS011;51832;48.152;11.530;2023-07-29T20:05:02;4.07;;;2.35;;
56599;SDS011;51832;48.152;11.530;2023-07-29T20:10:02;3.08;;;2.00;;
56599;SDS011;51832;48.152;11.530;2023-07-29T20:15:03;2.83;;;2.10;;
56599;SDS011;51832;48.152;11.530;2023-07-29T20:20:05;2.88;;;2.15;;
56599;SDS011;51832;48.152;11.530;2023-07-29T20:25:06;4.43;;;2.30;;
56599;SDS011;51832;48.152;11.530;2023-07-29T20:30:07;3.92;;;2.40;;
56599;SDS011;51832;48.152;11.530;2023-07-29T20:35:07;2.53;;;2.08;;
56599;SDS011;51832;48.152;11.530;2023-07-29T20:40:08;3.20;;;2.65;;
56599;SDS011;51832;48.152;11.530;2023-07-29T20:45:09;3.30;;;2.85;;
56599;SDS011;51832;48.152;11.530;2023-07-29T20:50:10;4.78;;;2.60;;
56599;SDS011;51832;48.152;11.530;2023-07-29T20:55:10;2.38;;;2.17;;
56599;SDS011;51832;48.152;11.530;2023-07-29T21:00:11;3.50;;;2.13;;
56599;SDS011;51832;48.152;11.530;2023-07-29T21:05:11;3.70;;;2.47;;
56599;SDS011;51832;48.152;11.530;2023-07-29T21:10:12;2.73;;;2.17;;
56599;SDS011;51832;48.152;11.530;2023-07-29T21:15:12;3.90;;;2.10;;
56599;SDS011;51832;48.152;11.530;2023-07-29T21:20:12;2.17;;;1.97;;
56599;SDS011;51832;48.152;11.530;2023-07-29T21:25:13;2.90;;;2.22;;
56599;SDS011;51832;48.152;11.530;2023-07-29T21:30:13;2.20;;;2.00;;
56599;SDS011;51832;48.152;11.530;2023-07-29T21:35:14;4.00;;;3.43;;
56599;SDS011;51832;48.152;11.530;2023-07-29T21:40:14;2.03;;;1.83;;
56599;SDS011;51832;48.152;11.530;2023-07-29T21:45:15;2.00;;;1.80;;
56599;SDS011;51832;48.152;11.530;2023-07-29T21:50:15;2.95;;;1.98;;
56599;SDS011;51832;48.152;11.530;2023-07-29T21:55:16;1.75;;;1.65;;
56599;SDS011;51832;48.152;11.530;2023-07-29T22:00:16;2.40;;;2.05;;
56599;SDS011;51832;48.152;11.530;2023-07-29T22:05:17;2.28;;;1.88;;
56599;SDS011;51832;48.152;11.530;2023-07-29T22:10:17;2.10;;;1.80;;
56599;SDS011;51832;48.152;11.530;2023-07-29T22:15:18;1.67;;;1.57;;
56599;SDS011;51832;48.152;11.530;2023-07-29T22:20:21;1.73;;;1.40;;
56599;SDS011;51832;48.152;11.530;2023-07-29T22:25:22;2.60;;;1.85;;
56599;SDS011;51832;48.152;11.530;2023-07-29T22:30:22;1.83;;;1.53;;
56599;SDS011;51832;48.152;11.530;2023-07-29T22:35:23;1.70;;;1.52;;
56599;SDS011;51832;48.152;11.530;2023-07-29T22:40:23;1.97;;;1.40;;
56599;SDS011;51832;48.152;11.530;2023-07-29T22:45:23;2.00;;;1.60;;
56599;SDS011;51832;48.152;11.530;2023-07-29T22:50:24;2.67;;;1.60;;
56599;SDS011;51832;48.152;11.530;2023-07-29T22:55:24;1.50;;;1.20;;
56599;SDS011;51832;48.152;11.530;2023-07-29T23:00:25;2.38;;;1.65;;
56599;SDS011;51832;48.152;11.530;2023-07-29T23:05:25;2.47;;;1.57;;
56599;SDS011;51832;48.152;11.530;2023-07-29T23:10:25;2.22;;;1.50;;
56599;SDS011;51832;48.152;11.530;2023-07-29T23:15:29;1.75;;;1.38;;
56599;SDS011;51832;48.152;11.530;2023-07-29T23:20:35;2.72;;;1.75;;
56599;SDS011;51832;48.152;11.530;2023-07-29T23:25:36;3.33;;;1.90;;
56599;SDS011;51832;48.152;11.530;2023-07-29T23:30:36;1.70;;;1.50;;
56599;SDS011;51832;48.152;11.530;2023-07-29T23:35:38;2.05;;;1.48;;
56599;SDS011;51832;48.152;11.530;2023-07-29T23:40:38;1.77;;;1.50;;
56599;SDS011;51832;48.152;11.530;2023-07-29T23:45:38;1.70;;;1.50;;
56599;SDS011;51832;48.152;11.530;2023-07-29T23:50:39;1.58;;;1.40;;
56599;SDS011;51832;48.152;11.530;2023-07-29T23:55:40;1.77;;;1.35;;
